Time;durP1;ratioP1;P1;durP2;ratioP2;P2;SDS_P1;SDS_P2;PMS_P1;PMS_P2;Temp;Humidity;BMP_temperature;BMP_pressure;BME280_temperature;BME280_humidity;BME280_pressure;Samples;Min_cycle;Max_cycle;Signal;HPM_P1;HPM_P2
2021/11/18 00:00:33;;;;;;;25.90;5.80;;;;;;;;;;5013816;28;20195;-72
2021/11/18 00:02:59;;;;;;;22.10;6.23;;;;;;;;;;5017412;28;20186;-72
2021/11/18 00:05:25;;;;;;;20.60;6.20;;;;;;;;;;5011570;28;20313;-72
2021/11/18 00:07:53;;;;;;;32.03;6.20;;;;;;;;;;5025449;28;20347;-72
2021/11/18 00:10:23;;;;;;;28.37;5.70;;;;;;;;;;5018799;28;20182;-72
2021/11/18 00:12:49;;;;;;;22.97;6.27;;;;;;;;;;5024669;28;20239;-72
2021/11/18 00:15:16;;;;;;;21.17;6.87;;;;;;;;;;5013857;28;20302;-72
2021/11/18 00:17:41;;;;;;;25.77;7.70;;;;;;;;;;5022946;28;20210;-72
2021/11/18 00:20:13;;;;;;;25.10;6.30;;;;;;;;;;5012558;28;21203;-72
2021/11/18 00:22:39;;;;;;;22.20;6.53;;;;;;;;;;5021984;28;20261;-72
2021/11/18 00:25:05;;;;;;;25.17;7.37;;;;;;;;;;5010184;28;20213;-72
2021/11/18 00:27:31;;;;;;;21.70;6.53;;;;;;;;;;5027491;28;20190;-72
2021/11/18 00:29:56;;;;;;;19.93;6.63;;;;;;;;;;5020304;28;20189;-72
2021/11/18 00:32:21;;;;;;;28.57;7.17;;;;;;;;;;5015958;28;20230;-72
2021/11/18 00:34:46;;;;;;;21.57;6.17;;;;;;;;;;5019508;28;20677;-72
2021/11/18 00:37:12;;;;;;;27.93;6.90;;;;;;;;;;5017120;28;20605;-72
2021/11/18 00:39:37;;;;;;;28.83;7.67;;;;;;;;;;5020800;28;20265;-72
2021/11/18 00:42:03;;;;;;;24.63;7.77;;;;;;;;;;5012941;28;20226;-72
2021/11/18 00:44:28;;;;;;;20.40;6.13;;;;;;;;;;5027459;28;20250;-72
2021/11/18 00:46:54;;;;;;;22.77;6.10;;;;;;;;;;5011810;28;20271;-72
2021/11/18 00:49:21;;;;;;;22.97;6.77;;;;;;;;;;5023523;28;20190;-72
2021/11/18 00:51:47;;;;;;;20.00;6.60;;;;;;;;;;5017416;28;20194;-72
2021/11/18 00:54:12;;;;;;;23.77;6.87;;;;;;;;;;5023765;28;20186;-72
2021/11/18 00:56:38;;;;;;;19.27;5.97;;;;;;;;;;5023860;28;20197;-72
2021/11/18 00:59:03;;;;;;;21.63;6.67;;;;;;;;;;5016680;28;20703;-72
2021/11/18 01:01:32;;;;;;;28.27;7.43;;;;;;;;;;5024648;28;20182;-73
2021/11/18 01:03:58;;;;;;;16.83;6.00;;;;;;;;;;5016465;28;20659;-72
2021/11/18 01:06:23;;;;;;;24.13;6.87;;;;;;;;;;5022476;28;20261;-72
2021/11/18 01:08:48;;;;;;;32.20;7.20;;;;;;;;;;5015472;28;20281;-72
2021/11/18 01:11:26;;;;;;;25.17;6.17;;;;;;;;;;5016126;28;20668;-72
2021/11/18 01:13:52;;;;;;;26.63;7.03;;;;;;;;;;5012524;28;20288;-72
2021/11/18 01:16:21;;;;;;;20.80;6.40;;;;;;;;;;5014845;28;20218;-72
2021/11/18 01:18:46;;;;;;;19.23;5.53;;;;;;;;;;5017935;28;20178;-73
2021/11/18 01:21:12;;;;;;;21.93;6.53;;;;;;;;;;5021326;28;20184;-72
2021/11/18 01:23:39;;;;;;;25.20;6.90;;;;;;;;;;5011661;28;20190;-72
2021/11/18 01:26:08;;;;;;;27.67;7.50;;;;;;;;;;5017656;28;20700;-72
2021/11/18 01:28:33;;;;;;;21.90;6.57;;;;;;;;;;5010920;28;20654;-72
2021/11/18 01:30:58;;;;;;;27.70;7.30;;;;;;;;;;5022391;28;20229;-72
2021/11/18 01:33:25;;;;;;;28.83;6.70;;;;;;;;;;5024926;28;20527;-73
2021/11/18 01:35:51;;;;;;;24.63;6.87;;;;;;;;;;5015413;28;20198;-72
2021/11/18 01:38:18;;;;;;;25.23;7.13;;;;;;;;;;5021305;28;20177;-73
2021/11/18 01:40:48;;;;;;;26.73;7.37;;;;;;;;;;5013160;28;20499;-73
2021/11/18 01:43:14;;;;;;;19.53;7.07;;;;;;;;;;5025684;28;20301;-73
2021/11/18 01:45:40;;;;;;;19.77;7.63;;;;;;;;;;5014608;28;20280;-73
2021/11/18 01:48:06;;;;;;;30.63;8.60;;;;;;;;;;5027529;28;20566;-73
2021/11/18 01:50:34;;;;;;;28.40;7.17;;;;;;;;;;5011039;28;20182;-72
2021/11/18 01:53:05;;;;;;;32.23;7.63;;;;;;;;;;5024385;28;20744;-72
2021/11/18 01:55:31;;;;;;;32.57;8.60;;;;;;;;;;5010663;28;20291;-72
2021/11/18 01:57:57;;;;;;;29.43;8.00;;;;;;;;;;5023412;28;20813;-72
2021/11/18 02:00:34;;;;;;;20.77;7.43;;;;;;;;;;5012454;28;20284;-72
2021/11/18 02:03:01;;;;;;;31.50;8.73;;;;;;;;;;5015638;28;20185;-72
2021/11/18 02:05:34;;;;;;;27.03;8.23;;;;;;;;;;5013759;28;20335;-72
2021/11/18 02:08:00;;;;;;;28.60;9.23;;;;;;;;;;5014694;28;20182;-73
2021/11/18 02:10:34;;;;;;;26.33;7.97;;;;;;;;;;5022295;28;20219;-73
2021/11/18 02:13:02;;;;;;;32.70;9.47;;;;;;;;;;5023580;28;20283;-73
2021/11/18 02:15:36;;;;;;;28.50;9.57;;;;;;;;;;5022564;28;20185;-72
2021/11/18 02:18:21;;;;;;;33.13;9.77;;;;;;;;;;5017954;28;20665;-73
2021/11/18 02:20:49;;;;;;;31.43;9.93;;;;;;;;;;5017491;28;20188;-72
2021/11/18 02:23:19;;;;;;;30.10;8.87;;;;;;;;;;5007314;28;20596;-73
2021/11/18 02:25:49;;;;;;;30.80;9.60;;;;;;;;;;5018210;28;20752;-72
2021/11/18 02:28:15;;;;;;;27.43;10.73;;;;;;;;;;5012407;28;20658;-72
2021/11/18 02:30:41;;;;;;;32.73;10.73;;;;;;;;;;5020498;28;20240;-72
2021/11/18 02:33:08;;;;;;;26.87;10.67;;;;;;;;;;5014534;28;20259;-72
2021/11/18 02:35:36;;;;;;;30.37;10.73;;;;;;;;;;5010274;28;20213;-72
2021/11/18 02:38:03;;;;;;;39.80;11.40;;;;;;;;;;5017168;28;20254;-72
2021/11/18 02:40:29;;;;;;;28.33;10.80;;;;;;;;;;5025249;28;20186;-73
2021/11/18 02:42:56;;;;;;;29.00;11.77;;;;;;;;;;5018314;28;20190;-73
2021/11/18 02:45:25;;;;;;;32.10;11.57;;;;;;;;;;5028811;28;20178;-73
2021/11/18 02:47:51;;;;;;;25.63;11.10;;;;;;;;;;5020635;28;20193;-73
2021/11/18 02:50:20;;;;;;;30.10;10.03;;;;;;;;;;5020395;28;20630;-73
2021/11/18 02:52:46;;;;;;;32.63;11.60;;;;;;;;;;5021817;28;20279;-73
2021/11/18 02:55:34;;;;;;;28.13;11.23;;;;;;;;;;5022157;28;20218;-72
2021/11/18 02:58:00;;;;;;;25.13;10.90;;;;;;;;;;5022226;28;20201;-72
2021/11/18 03:00:30;;;;;;;31.07;10.67;;;;;;;;;;5015094;28;20194;-72
2021/11/18 03:02:55;;;;;;;34.63;11.33;;;;;;;;;;5024812;28;20626;-72
2021/11/18 03:05:21;;;;;;;37.47;11.60;;;;;;;;;;5012871;28;20295;-73
2021/11/18 03:07:47;;;;;;;33.90;12.33;;;;;;;;;;5028516;28;20178;-72
2021/11/18 03:10:15;;;;;;;31.60;10.90;;;;;;;;;;5018783;28;20641;-72
2021/11/18 03:12:40;;;;;;;31.33;11.37;;;;;;;;;;5027972;28;20202;-72
2021/11/18 03:15:10;;;;;;;31.37;11.83;;;;;;;;;;5014963;28;20494;-73
2021/11/18 03:17:35;;;;;;;32.67;11.73;;;;;;;;;;5028886;28;20182;-73
2021/11/18 03:20:01;;;;;;;32.10;12.20;;;;;;;;;;5018081;28;20564;-73
2021/11/18 03:22:26;;;;;;;35.17;11.73;;;;;;;;;;5028673;28;20732;-73
2021/11/18 03:24:52;;;;;;;31.33;12.17;;;;;;;;;;5017977;28;20243;-73
2021/11/18 03:27:17;;;;;;;32.87;11.40;;;;;;;;;;5019897;28;20658;-72
2021/11/18 03:29:43;;;;;;;34.87;11.60;;;;;;;;;;5016220;28;20642;-72
2021/11/18 03:32:08;;;;;;;32.20;11.97;;;;;;;;;;5028834;28;20241;-73
2021/11/18 03:34:35;;;;;;;37.37;11.63;;;;;;;;;;5024666;28;20242;-72
2021/11/18 03:37:02;;;;;;;27.00;10.90;;;;;;;;;;5021696;28;20277;-72
2021/11/18 03:39:28;;;;;;;35.80;12.23;;;;;;;;;;5023626;28;20914;-73
2021/11/18 03:41:56;;;;;;;30.13;11.23;;;;;;;;;;5013756;28;20178;-73
2021/11/18 03:44:24;;;;;;;25.37;10.40;;;;;;;;;;5025079;28;20178;-72
2021/11/18 03:46:54;;;;;;;38.67;11.17;;;;;;;;;;5019434;28;20182;-72
2021/11/18 03:49:20;;;;;;;29.23;11.10;;;;;;;;;;5023622;28;20202;-72
2021/11/18 03:51:47;;;;;;;30.27;11.63;;;;;;;;;;5012562;28;20288;-72
2021/11/18 03:54:15;;;;;;;34.00;11.20;;;;;;;;;;5026092;28;20519;-72
2021/11/18 03:56:41;;;;;;;26.77;11.40;;;;;;;;;;5016415;28;20714;-72
2021/11/18 03:59:09;;;;;;;28.87;11.53;;;;;;;;;;5025369;28;20267;-72
2021/11/18 04:01:35;;;;;;;27.30;10.70;;;;;;;;;;5013315;28;20186;-73
2021/11/18 04:04:04;;;;;;;29.40;11.23;;;;;;;;;;5025430;28;20596;-72
2021/11/18 04:06:30;;;;;;;27.83;10.57;;;;;;;;;;5011364;28;20360;-72
2021/11/18 04:08:55;;;;;;;35.80;11.03;;;;;;;;;;5022394;28;20269;-72
2021/11/18 04:11:20;;;;;;;37.20;11.13;;;;;;;;;;5022338;28;20216;-72
2021/11/18 04:13:46;;;;;;;36.10;11.10;;;;;;;;;;5009796;28;20189;-72
2021/11/18 04:16:11;;;;;;;42.43;10.77;;;;;;;;;;5021354;28;20278;-72
2021/11/18 04:18:36;;;;;;;36.93;11.43;;;;;;;;;;5011836;28;20193;-72
2021/11/18 04:21:02;;;;;;;25.20;9.50;;;;;;;;;;5018996;28;20193;-72
2021/11/18 04:23:28;;;;;;;32.80;10.80;;;;;;;;;;5021499;28;20197;-72
2021/11/18 04:25:54;;;;;;;29.43;10.13;;;;;;;;;;5023387;28;20543;-72
2021/11/18 04:28:21;;;;;;;34.87;9.57;;;;;;;;;;5017009;28;20186;-72
2021/11/18 04:31:00;;;;;;;39.20;10.03;;;;;;;;;;5022253;28;20186;-72
2021/11/18 04:33:26;;;;;;;27.87;10.07;;;;;;;;;;5011477;28;20602;-72
2021/11/18 04:35:52;;;;;;;32.30;10.07;;;;;;;;;;5026395;28;20186;-72
2021/11/18 04:38:18;;;;;;;31.90;11.90;;;;;;;;;;5014094;28;20197;-72
2021/11/18 04:40:44;;;;;;;30.17;10.53;;;;;;;;;;5021991;28;20199;-72
2021/11/18 04:43:09;;;;;;;29.57;10.30;;;;;;;;;;5014490;28;20175;-72
2021/11/18 04:45:36;;;;;;;34.43;11.30;;;;;;;;;;5022510;28;20206;-72
2021/11/18 04:48:01;;;;;;;37.37;10.73;;;;;;;;;;5015687;28;20182;-72
2021/11/18 04:50:27;;;;;;;33.13;11.53;;;;;;;;;;5015947;28;20813;-72
2021/11/18 04:52:53;;;;;;;43.57;10.83;;;;;;;;;;5028887;28;20241;-73
2021/11/18 04:55:22;;;;;;;29.30;10.53;;;;;;;;;;5014666;28;20203;-73
2021/11/18 04:57:48;;;;;;;28.70;9.90;;;;;;;;;;5020286;28;20303;-72
2021/11/18 05:00:27;;;;;;;29.87;10.87;;;;;;;;;;5012062;28;20265;-72
2021/11/18 05:02:53;;;;;;;22.93;9.87;;;;;;;;;;5014339;28;20806;-72
2021/11/18 05:05:20;;;;;;;29.67;10.43;;;;;;;;;;5010848;28;20227;-72
2021/11/18 05:07:46;;;;;;;31.27;10.57;;;;;;;;;;5027113;28;20210;-73
2021/11/18 05:10:12;;;;;;;25.80;10.17;;;;;;;;;;5011697;28;20205;-71
2021/11/18 05:12:38;;;;;;;34.10;10.77;;;;;;;;;;5022393;28;20673;-72
2021/11/18 05:15:06;;;;;;;39.57;10.60;;;;;;;;;;5017107;28;20189;-71
2021/11/18 05:17:32;;;;;;;34.63;11.77;;;;;;;;;;5017532;28;20194;-72
2021/11/18 05:19:57;;;;;;;33.10;10.43;;;;;;;;;;5015490;28;20552;-72
2021/11/18 05:22:22;;;;;;;37.27;11.67;;;;;;;;;;5024026;28;20183;-72
2021/11/18 05:24:48;;;;;;;41.40;10.67;;;;;;;;;;5018439;28;20182;-72
2021/11/18 05:27:13;;;;;;;30.67;10.63;;;;;;;;;;5013864;28;20292;-72
2021/11/18 05:29:39;;;;;;;31.50;10.80;;;;;;;;;;5017919;28;20190;-72
2021/11/18 05:32:04;;;;;;;31.13;11.20;;;;;;;;;;5015945;28;20209;-72
2021/11/18 05:34:30;;;;;;;30.10;10.20;;;;;;;;;;5023337;28;20186;-72
2021/11/18 05:36:56;;;;;;;27.20;11.40;;;;;;;;;;5014162;28;20240;-72
2021/11/18 05:39:21;;;;;;;33.60;11.37;;;;;;;;;;5011901;28;20186;-72
2021/11/18 05:41:47;;;;;;;36.80;11.50;;;;;;;;;;5009645;28;20201;-72
2021/11/18 05:44:12;;;;;;;36.67;11.67;;;;;;;;;;5023215;28;20179;-72
2021/11/18 05:46:38;;;;;;;40.00;11.00;;;;;;;;;;5010663;28;20281;-72
2021/11/18 05:49:05;;;;;;;31.17;11.87;;;;;;;;;;5025106;28;20553;-73
2021/11/18 05:51:31;;;;;;;30.43;10.40;;;;;;;;;;5012503;28;20737;-72
2021/11/18 05:53:57;;;;;;;34.30;10.93;;;;;;;;;;5028427;28;20202;-73
2021/11/18 05:56:23;;;;;;;33.57;10.97;;;;;;;;;;5019587;28;20636;-73
2021/11/18 05:58:51;;;;;;;31.00;10.80;;;;;;;;;;5012694;28;20544;-72
2021/11/18 06:01:20;;;;;;;31.60;10.27;;;;;;;;;;5037081;28;20215;-73
2021/11/18 06:03:46;;;;;;;29.13;10.53;;;;;;;;;;5006718;28;20218;-73
2021/11/18 06:06:12;;;;;;;34.80;10.13;;;;;;;;;;5021326;28;20252;-73
2021/11/18 06:08:37;;;;;;;32.63;10.37;;;;;;;;;;5012729;28;20186;-73
2021/11/18 06:11:04;;;;;;;33.83;10.57;;;;;;;;;;5024045;28;20406;-73
2021/11/18 06:13:29;;;;;;;35.70;11.23;;;;;;;;;;5010513;28;20674;-73
2021/11/18 06:15:55;;;;;;;36.67;11.03;;;;;;;;;;5019633;28;20281;-72
2021/11/18 06:18:22;;;;;;;37.57;11.17;;;;;;;;;;5010868;28;20611;-73
2021/11/18 06:20:47;;;;;;;31.20;11.63;;;;;;;;;;5020778;28;20218;-73
2021/11/18 06:23:13;;;;;;;29.73;11.50;;;;;;;;;;5013029;28;20205;-72
2021/11/18 06:25:39;;;;;;;28.27;10.83;;;;;;;;;;5015731;28;20300;-75
2021/11/18 06:28:08;;;;;;;35.37;11.43;;;;;;;;;;5015576;28;20239;-73
2021/11/18 06:30:47;;;;;;;38.77;11.77;;;;;;;;;;5011611;28;20196;-72
2021/11/18 06:33:13;;;;;;;32.10;11.90;;;;;;;;;;5019491;28;20267;-72
2021/11/18 06:35:39;;;;;;;36.03;10.87;;;;;;;;;;5010751;28;20183;-72
2021/11/18 06:38:04;;;;;;;32.73;11.13;;;;;;;;;;5021773;28;20201;-72
2021/11/18 06:40:30;;;;;;;31.77;10.70;;;;;;;;;;5015875;28;20193;-73
2021/11/18 06:42:56;;;;;;;33.63;10.60;;;;;;;;;;5022822;28;20225;-72
2021/11/18 06:45:25;;;;;;;33.07;11.20;;;;;;;;;;5007010;28;20323;-72
2021/11/18 06:47:50;;;;;;;38.67;11.60;;;;;;;;;;5019484;28;20626;-73
2021/11/18 06:50:16;;;;;;;31.10;10.73;;;;;;;;;;5010271;28;20181;-72
2021/11/18 06:52:42;;;;;;;30.00;11.27;;;;;;;;;;5022140;28;20553;-73
2021/11/18 06:55:11;;;;;;;40.30;11.63;;;;;;;;;;5010046;28;20194;-73
2021/11/18 06:57:37;;;;;;;29.60;11.30;;;;;;;;;;5020868;28;20224;-73
2021/11/18 07:00:05;;;;;;;33.73;11.00;;;;;;;;;;5012412;28;20519;-73
2021/11/18 07:02:30;;;;;;;30.63;10.53;;;;;;;;;;5013126;28;20185;-72
2021/11/18 07:04:56;;;;;;;34.93;11.03;;;;;;;;;;5019645;28;20214;-73
2021/11/18 07:07:21;;;;;;;32.40;11.53;;;;;;;;;;5010146;28;20241;-74
2021/11/18 07:09:47;;;;;;;38.03;11.30;;;;;;;;;;5017496;28;20324;-73
2021/11/18 07:12:16;;;;;;;37.55;11.88;;;;;;;;;;5012235;28;20210;-72
2021/11/18 07:14:42;;;;;;;38.93;10.57;;;;;;;;;;5019830;28;20602;-73
2021/11/18 07:17:07;;;;;;;34.90;10.30;;;;;;;;;;5011208;28;20199;-73
2021/11/18 07:19:33;;;;;;;35.00;12.33;;;;;;;;;;5015257;28;20476;-73
2021/11/18 07:21:59;;;;;;;28.87;10.67;;;;;;;;;;5016649;28;20265;-72
2021/11/18 07:24:26;;;;;;;27.37;10.43;;;;;;;;;;5022610;28;20194;-73
2021/11/18 07:26:51;;;;;;;28.77;11.17;;;;;;;;;;5016541;28;20190;-72
2021/11/18 07:29:17;;;;;;;29.23;11.30;;;;;;;;;;5024877;28;20205;-72
2021/11/18 07:31:43;;;;;;;31.83;10.97;;;;;;;;;;5014438;28;20194;-73
2021/11/18 07:34:08;;;;;;;38.70;11.00;;;;;;;;;;5025387;28;20622;-72
2021/11/18 07:36:33;;;;;;;32.97;10.60;;;;;;;;;;5024705;28;20171;-73
2021/11/18 07:38:59;;;;;;;32.97;10.20;;;;;;;;;;5015848;28;20194;-72
2021/11/18 07:41:26;;;;;;;31.23;11.30;;;;;;;;;;5019740;28;20187;-73
2021/11/18 07:43:51;;;;;;;48.80;11.93;;;;;;;;;;5018391;28;20701;-73
2021/11/18 07:46:17;;;;;;;30.80;11.07;;;;;;;;;;5024901;28;20437;-73
2021/11/18 07:48:45;;;;;;;32.90;11.47;;;;;;;;;;5012534;28;20234;-72
2021/11/18 07:51:12;;;;;;;31.13;11.03;;;;;;;;;;5017299;28;20257;-72
2021/11/18 07:53:39;;;;;;;32.17;10.70;;;;;;;;;;4319557;28;10000815;-72
2021/11/18 07:56:05;;;;;;;38.13;11.13;;;;;;;;;;5025726;28;20264;-72
2021/11/18 07:58:31;;;;;;;33.23;11.90;;;;;;;;;;5012908;28;20186;-72
2021/11/18 08:00:57;;;;;;;40.77;11.10;;;;;;;;;;5019222;28;20178;-72
2021/11/18 08:03:24;;;;;;;32.13;10.60;;;;;;;;;;5012485;28;20243;-73
2021/11/18 08:05:49;;;;;;;35.53;10.87;;;;;;;;;;5027506;28;20973;-72
2021/11/18 08:08:14;;;;;;;34.53;11.20;;;;;;;;;;5022670;28;20212;-72
2021/11/18 08:10:40;;;;;;;37.57;11.60;;;;;;;;;;5018839;28;20260;-72
2021/11/18 08:13:06;;;;;;;32.50;10.73;;;;;;;;;;5027513;28;20206;-72
2021/11/18 08:15:32;;;;;;;31.67;11.87;;;;;;;;;;5019747;28;20190;-73
2021/11/18 08:17:57;;;;;;;33.30;10.40;;;;;;;;;;5023426;28;20194;-72
2021/11/18 08:20:24;;;;;;;34.77;10.83;;;;;;;;;;5012939;28;20179;-73
2021/11/18 08:22:50;;;;;;;38.03;12.00;;;;;;;;;;5021131;28;20194;-72
2021/11/18 08:25:18;;;;;;;32.60;11.00;;;;;;;;;;5014535;28;20213;-72
2021/11/18 08:27:44;;;;;;;34.03;10.87;;;;;;;;;;5024678;28;20514;-71
2021/11/18 08:30:15;;;;;;;29.37;10.13;;;;;;;;;;5017792;28;20193;-71
2021/11/18 08:32:42;;;;;;;38.20;11.17;;;;;;;;;;5026319;28;20202;-72
2021/11/18 08:35:08;;;;;;;38.27;10.90;;;;;;;;;;5010156;28;20965;-72
2021/11/18 08:37:33;;;;;;;37.07;11.30;;;;;;;;;;5026679;28;20335;-71
2021/11/18 08:39:58;;;;;;;36.03;11.33;;;;;;;;;;5022856;28;20188;-71
2021/11/18 08:42:27;;;;;;;36.93;10.50;;;;;;;;;;5017417;28;20269;-72
2021/11/18 08:44:53;;;;;;;27.27;9.60;;;;;;;;;;5026661;28;20186;-72
2021/11/18 08:47:19;;;;;;;33.53;10.47;;;;;;;;;;5016345;28;20192;-72
2021/11/18 08:49:45;;;;;;;33.28;9.95;;;;;;;;;;5017232;28;20186;-71
2021/11/18 08:52:15;;;;;;;33.28;10.30;;;;;;;;;;5013192;28;20202;-72
2021/11/18 08:54:44;;;;;;;38.50;11.13;;;;;;;;;;5017002;28;20186;-72
2021/11/18 08:57:10;;;;;;;32.90;10.13;;;;;;;;;;5014443;28;20214;-72
2021/11/18 08:59:37;;;;;;;36.90;11.10;;;;;;;;;;5017038;28;20182;-71
2021/11/18 09:02:08;;;;;;;29.63;9.38;;;;;;;;;;5012201;28;20186;-71
2021/11/18 09:04:33;;;;;;;27.38;9.70;;;;;;;;;;5018002;28;20306;-72
2021/11/18 09:06:58;;;;;;;39.25;10.52;;;;;;;;;;5013608;28;20278;-74
2021/11/18 09:09:26;;;;;;;27.73;10.13;;;;;;;;;;5026872;28;20551;-72
2021/11/18 09:11:53;;;;;;;28.05;9.23;;;;;;;;;;5010714;28;23377;-72
2021/11/18 09:14:20;;;;;;;25.20;9.13;;;;;;;;;;5020838;28;20175;-71
2021/11/18 09:16:47;;;;;;;34.38;9.30;;;;;;;;;;5018342;28;20544;-71
2021/11/18 09:19:16;;;;;;;31.15;9.23;;;;;;;;;;5021760;28;20261;-71
2021/11/18 09:21:43;;;;;;;31.48;9.75;;;;;;;;;;5023887;28;20190;-71
2021/11/18 09:24:14;;;;;;;30.90;10.35;;;;;;;;;;5015557;28;20186;-72
2021/11/18 09:26:42;;;;;;;43.00;10.57;;;;;;;;;;5023870;28;20300;-72
2021/11/18 09:29:08;;;;;;;30.67;8.88;;;;;;;;;;5012801;28;20222;-72
2021/11/18 09:31:34;;;;;;;32.13;8.75;;;;;;;;;;5025292;28;20248;-72
2021/11/18 09:34:01;;;;;;;28.88;9.50;;;;;;;;;;5019453;28;20206;-73
2021/11/18 09:36:29;;;;;;;31.10;9.73;;;;;;;;;;5022604;28;20186;-72
2021/11/18 09:38:56;;;;;;;28.88;8.95;;;;;;;;;;5008019;28;20678;-71
2021/11/18 09:41:25;;;;;;;25.17;8.15;;;;;;;;;;5025546;28;20546;-71
2021/11/18 09:44:09;;;;;;;34.72;9.00;;;;;;;;;;5011854;28;20222;-73
2021/11/18 09:46:36;;;;;;;27.05;8.70;;;;;;;;;;5024621;28;20189;-73
2021/11/18 09:49:40;;;;;;;26.45;8.07;;;;;;;;;;5015703;28;20715;-72
2021/11/18 09:52:05;;;;;;;24.65;8.48;;;;;;;;;;5016404;28;20202;-73
2021/11/18 09:55:00;;;;;;;31.63;8.70;;;;;;;;;;5006413;28;20234;-72
2021/11/18 09:57:48;;;;;;;33.65;8.65;;;;;;;;;;5023691;28;20536;-73
2021/11/18 10:00:37;;;;;;;27.67;8.52;;;;;;;;;;5014705;28;20215;-72
2021/11/18 10:03:15;;;;;;;34.70;9.30;;;;;;;;;;5019088;28;20205;-73
2021/11/18 10:06:18;;;;;;;37.90;9.82;;;;;;;;;;5012839;28;20796;-73
2021/11/18 10:09:04;;;;;;;26.33;8.35;;;;;;;;;;5022014;28;20538;-72
2021/11/18 10:11:40;;;;;;;32.35;9.45;;;;;;;;;;5015454;28;20186;-72
2021/11/18 10:14:24;;;;;;;30.05;9.15;;;;;;;;;;5024234;28;20193;-72
2021/11/18 10:17:01;;;;;;;26.38;9.13;;;;;;;;;;5017852;28;20312;-72
2021/11/18 10:19:35;;;;;;;30.15;9.55;;;;;;;;;;5019945;28;20623;-72
2021/11/18 10:22:00;;;;;;;35.45;9.43;;;;;;;;;;5014171;28;20186;-72
2021/11/18 10:24:32;;;;;;;39.53;10.25;;;;;;;;;;5021729;28;20206;-73
2021/11/18 10:27:09;;;;;;;28.40;9.43;;;;;;;;;;5007935;28;20194;-73
2021/11/18 10:29:36;;;;;;;37.10;9.43;;;;;;;;;;5021203;28;20186;-75
2021/11/18 10:32:04;;;;;;;36.15;10.68;;;;;;;;;;5011650;28;20256;-72
2021/11/18 10:34:30;;;;;;;25.33;10.07;;;;;;;;;;5022762;28;20203;-73
2021/11/18 10:36:55;;;;;;;27.67;8.82;;;;;;;;;;5015405;28;20205;-73
2021/11/18 10:39:26;;;;;;;38.17;10.35;;;;;;;;;;5022506;28;20629;-74
2021/11/18 10:41:57;;;;;;;27.58;9.85;;;;;;;;;;5018360;28;20222;-73
2021/11/18 10:44:31;;;;;;;29.38;9.02;;;;;;;;;;5022357;28;20197;-73
2021/11/18 10:47:20;;;;;;;29.05;9.63;;;;;;;;;;5011152;28;21993;-72
2021/11/18 10:50:16;;;;;;;25.95;9.52;;;;;;;;;;5018206;28;20185;-72
2021/11/18 10:52:46;;;;;;;30.88;10.52;;;;;;;;;;5001872;28;20317;-72
2021/11/18 10:55:18;;;;;;;33.05;9.85;;;;;;;;;;5025021;28;20650;-72
2021/11/18 10:57:54;;;;;;;32.00;9.98;;;;;;;;;;5014493;28;20201;-72
2021/11/18 11:00:40;;;;;;;35.30;10.20;;;;;;;;;;5019572;28;20185;-74
2021/11/18 11:03:30;;;;;;;36.17;11.43;;;;;;;;;;5017487;28;20273;-73
2021/11/18 11:06:17;;;;;;;33.25;10.43;;;;;;;;;;5027420;28;20202;-72
2021/11/18 11:08:48;;;;;;;37.92;10.18;;;;;;;;;;5021191;28;20577;-72
2021/11/18 11:11:17;;;;;;;33.67;10.55;;;;;;;;;;5027625;28;20217;-70
2021/11/18 11:14:12;;;;;;;34.63;10.43;;;;;;;;;;5020198;28;20266;-72
2021/11/18 11:16:40;;;;;;;31.08;10.80;;;;;;;;;;5028712;28;20257;-72
2021/11/18 11:19:34;;;;;;;34.22;10.77;;;;;;;;;;5012022;28;20781;-73
2021/11/18 11:22:11;;;;;;;34.20;11.43;;;;;;;;;;5007229;28;20198;-73
2021/11/18 11:25:05;;;;;;;29.90;10.52;;;;;;;;;;5016662;28;20259;-73
2021/11/18 11:27:48;;;;;;;36.50;10.00;;;;;;;;;;5026139;28;20178;-73
2021/11/18 11:30:22;;;;;;;32.80;10.98;;;;;;;;;;5015266;28;20221;-73
2021/11/18 11:33:04;;;;;;;38.03;10.70;;;;;;;;;;5025233;28;20244;-73
2021/11/18 11:35:48;;;;;;;36.30;9.48;;;;;;;;;;5012505;28;20197;-71
2021/11/18 11:38:30;;;;;;;30.52;10.05;;;;;;;;;;5028393;28;20231;-71
2021/11/18 11:41:26;;;;;;;33.38;9.32;;;;;;;;;;5016652;28;20252;-72
2021/11/18 11:44:09;;;;;;;37.28;10.57;;;;;;;;;;5025297;28;20319;-72
2021/11/18 11:46:41;;;;;;;32.67;9.80;;;;;;;;;;5019948;28;20181;-72
2021/11/18 11:49:21;;;;;;;33.13;9.18;;;;;;;;;;5022409;28;20665;-71
2021/11/18 11:52:20;;;;;;;27.00;9.05;;;;;;;;;;5016311;28;20210;-72
2021/11/18 11:55:29;;;;;;;38.33;9.77;;;;;;;;;;5021628;28;20186;-72
2021/11/18 11:58:03;;;;;;;34.60;9.30;;;;;;;;;;5024159;28;20241;-72
2021/11/18 12:01:13;;;;;;;26.75;9.07;;;;;;;;;;5019157;28;20642;-72
2021/11/18 12:03:58;;;;;;;35.13;10.35;;;;;;;;;;5016394;28;20202;-72
2021/11/18 12:06:46;;;;;;;29.23;8.20;;;;;;;;;;5015968;28;20213;-71
2021/11/18 12:09:21;;;;;;;32.88;8.45;;;;;;;;;;5016483;28;20293;-72
2021/11/18 12:11:47;;;;;;;39.83;9.30;;;;;;;;;;5013135;28;20271;-72
2021/11/18 12:14:31;;;;;;;33.95;8.32;;;;;;;;;;5016459;28;20202;-71
2021/11/18 12:17:24;;;;;;;35.90;8.82;;;;;;;;;;5015904;28;20221;-71
2021/11/18 12:19:56;;;;;;;27.80;7.45;;;;;;;;;;5019710;28;20651;-72
2021/11/18 12:22:39;;;;;;;26.10;7.28;;;;;;;;;;5014071;28;20677;-72
2021/11/18 12:25:17;;;;;;;29.90;7.47;;;;;;;;;;5022511;28;20664;-72
2021/11/18 12:27:48;;;;;;;28.60;6.78;;;;;;;;;;5016469;28;20193;-72
2021/11/18 12:30:29;;;;;;;30.30;7.15;;;;;;;;;;5022413;28;20283;-72
2021/11/18 12:33:05;;;;;;;26.45;6.60;;;;;;;;;;5012101;28;20217;-71
2021/11/18 12:35:31;;;;;;;28.92;7.32;;;;;;;;;;5025722;28;20196;-72
2021/11/18 12:38:28;;;;;;;27.35;6.72;;;;;;;;;;5014092;28;20351;-72
2021/11/18 12:41:14;;;;;;;29.63;7.28;;;;;;;;;;5021407;28;20201;-72
2021/11/18 12:44:07;;;;;;;26.98;7.07;;;;;;;;;;5018912;28;20179;-72
2021/11/18 12:46:57;;;;;;;28.88;7.45;;;;;;;;;;5026416;28;20190;-72
2021/11/18 12:49:43;;;;;;;28.33;7.45;;;;;;;;;;5016547;28;20198;-72
2021/11/18 12:52:25;;;;;;;27.00;7.50;;;;;;;;;;5016594;28;20202;-72
2021/11/18 12:55:16;;;;;;;23.92;7.55;;;;;;;;;;5013716;28;20191;-72
2021/11/18 12:57:57;;;;;;;28.65;7.43;;;;;;;;;;5023743;28;20237;-72
2021/11/18 13:01:04;;;;;;;30.02;7.25;;;;;;;;;;5015926;28;20192;-72
2021/11/18 13:03:51;;;;;;;32.63;7.82;;;;;;;;;;5010601;28;20296;-72
2021/11/18 13:06:38;;;;;;;30.20;7.38;;;;;;;;;;5015969;28;20217;-72
2021/11/18 13:09:09;;;;;;;29.83;7.50;;;;;;;;;;5014144;28;20186;-72
2021/11/18 13:11:56;;;;;;;32.63;7.90;;;;;;;;;;5017872;28;20271;-72
2021/11/18 13:14:24;;;;;;;28.38;8.98;;;;;;;;;;5012525;28;20186;-72
2021/11/18 13:16:51;;;;;;;27.30;7.35;;;;;;;;;;5026936;28;20626;-72
2021/11/18 13:19:28;;;;;;;30.60;8.32;;;;;;;;;;5014664;28;20265;-71
2021/11/18 13:22:18;;;;;;;33.00;7.68;;;;;;;;;;5027996;28;20641;-72
2021/11/18 13:25:02;;;;;;;32.22;7.50;;;;;;;;;;5008514;28;20187;-73
2021/11/18 13:28:05;;;;;;;24.80;6.43;;;;;;;;;;5020415;28;20529;-72
2021/11/18 13:30:40;;;;;;;24.02;6.85;;;;;;;;;;5018044;28;20190;-71
2021/11/18 13:33:22;;;;;;;24.20;7.65;;;;;;;;;;5022898;28;20205;-71
2021/11/18 13:36:01;;;;;;;29.35;7.30;;;;;;;;;;5007161;28;20190;-72
2021/11/18 13:38:31;;;;;;;29.85;6.97;;;;;;;;;;5025662;28;20623;-72
2021/11/18 13:40:59;;;;;;;24.20;5.72;;;;;;;;;;5006801;28;20194;-72
2021/11/18 13:43:28;;;;;;;29.95;7.07;;;;;;;;;;5018292;28;20178;-72
2021/11/18 13:45:56;;;;;;;26.73;6.50;;;;;;;;;;5009995;28;20835;-71
2021/11/18 13:48:37;;;;;;;23.48;6.47;;;;;;;;;;5014482;28;20178;-71
2021/11/18 13:51:02;;;;;;;22.42;6.07;;;;;;;;;;5007840;28;20272;-72
2021/11/18 13:53:50;;;;;;;20.88;6.40;;;;;;;;;;5026324;28;20289;-71
2021/11/18 13:56:27;;;;;;;28.02;5.75;;;;;;;;;;5014124;28;20659;-71
2021/11/18 13:59:16;;;;;;;20.67;5.40;;;;;;;;;;5017349;28;20189;-70
2021/11/18 14:01:48;;;;;;;18.00;5.30;;;;;;;;;;5013728;28;20618;-71
2021/11/18 14:04:17;;;;;;;25.92;5.63;;;;;;;;;;5025317;28;20229;-70
2021/11/18 14:06:46;;;;;;;22.38;5.45;;;;;;;;;;5012269;28;20182;-71
2021/11/18 14:09:17;;;;;;;20.10;5.68;;;;;;;;;;5021570;28;20194;-71
2021/11/18 14:12:00;;;;;;;27.17;5.60;;;;;;;;;;5021280;28;20202;-71
2021/11/18 14:14:34;;;;;;;20.92;5.30;;;;;;;;;;5019167;28;20271;-71
2021/11/18 14:17:13;;;;;;;32.50;5.65;;;;;;;;;;5021343;28;20186;-71
2021/11/18 14:19:49;;;;;;;17.30;4.97;;;;;;;;;;5013518;28;20681;-70
2021/11/18 14:22:24;;;;;;;19.48;5.45;;;;;;;;;;5013883;28;20194;-71
2021/11/18 14:24:53;;;;;;;25.42;5.97;;;;;;;;;;5013014;28;20196;-70
2021/11/18 14:27:18;;;;;;;22.00;5.60;;;;;;;;;;5015237;28;20236;-70
2021/11/18 14:30:05;;;;;;;24.23;5.78;;;;;;;;;;5005433;28;20573;-71
2021/11/18 14:32:59;;;;;;;25.38;5.20;;;;;;;;;;5012202;28;20328;-71
2021/11/18 14:35:44;;;;;;;29.13;6.68;;;;;;;;;;5005223;28;20328;-71
2021/11/18 14:38:09;;;;;;;23.27;5.57;;;;;;;;;;5008750;28;20190;-71
2021/11/18 14:40:55;;;;;;;22.50;5.93;;;;;;;;;;5000670;28;20186;-71
2021/11/18 14:43:31;;;;;;;25.33;6.28;;;;;;;;;;5014367;28;20272;-71
2021/11/18 14:46:23;;;;;;;27.17;5.85;;;;;;;;;;5009352;28;20213;-70